Time;durP1;ratioP1;P1;durP2;ratioP2;P2;SDS_P1;SDS_P2;PMS_P1;PMS_P2;Temp;Humidity;BMP_temperature;BMP_pressure;BME280_temperature;BME280_humidity;BME280_pressure;Samples;Min_cycle;Max_cycle;Signal;HPM_P1;HPM_P2
2023/12/16 00:00:51;;;;;;;18.05;11.52;;;;;;;;;;10216463;29;20429;-86
2023/12/16 00:05:55;;;;;;;17.20;11.43;;;;;;;;;;10211377;29;20905;-86
2023/12/16 00:10:57;;;;;;;15.95;11.27;;;;;;;;;;10224297;29;20569;-86
2023/12/16 00:15:59;;;;;;;17.83;10.90;;;;;;;;;;10219933;28;20494;-85
2023/12/16 00:21:03;;;;;;;17.25;11.32;;;;;;;;;;10219682;29;20521;-86
2023/12/16 00:26:06;;;;;;;16.75;11.02;;;;;;;;;;10237529;28;20510;-86
2023/12/16 00:31:08;;;;;;;24.42;14.23;;;;;;;;;;10217330;29;20494;-86
2023/12/16 00:36:12;;;;;;;16.90;10.83;;;;;;;;;;10221724;29;20520;-86
2023/12/16 00:41:14;;;;;;;19.30;11.30;;;;;;;;;;10219099;29;20467;-86
2023/12/16 00:46:17;;;;;;;20.05;11.68;;;;;;;;;;10226504;29;20466;-86
2023/12/16 00:51:22;;;;;;;18.70;11.25;;;;;;;;;;10228501;28;20427;-86
2023/12/16 00:56:24;;;;;;;19.60;11.13;;;;;;;;;;10228906;28;20934;-86
2023/12/16 01:01:27;;;;;;;16.67;10.40;;;;;;;;;;10228637;29;20973;-85
2023/12/16 01:06:30;;;;;;;16.70;9.80;;;;;;;;;;10222502;28;20512;-85
2023/12/16 01:11:33;;;;;;;14.20;10.00;;;;;;;;;;10229654;29;20468;-85
2023/12/16 01:16:35;;;;;;;15.40;9.68;;;;;;;;;;10219229;29;20451;-86
2023/12/16 01:21:42;;;;;;;16.58;8.85;;;;;;;;;;10226736;29;20500;-85
2023/12/16 01:26:45;;;;;;;15.40;9.27;;;;;;;;;;10222948;29;20559;-86
2023/12/16 01:31:47;;;;;;;14.60;8.57;;;;;;;;;;10226865;29;20419;-86
2023/12/16 01:36:51;;;;;;;14.00;8.10;;;;;;;;;;10239014;28;20498;-85
2023/12/16 01:41:53;;;;;;;14.13;8.40;;;;;;;;;;10231139;28;20932;-86
2023/12/16 01:46:56;;;;;;;14.23;8.93;;;;;;;;;;10226982;28;20517;-85
2023/12/16 01:52:00;;;;;;;12.05;8.07;;;;;;;;;;10227221;28;20517;-86
2023/12/16 01:57:04;;;;;;;12.23;7.97;;;;;;;;;;10223823;29;20477;-85
2023/12/16 02:02:07;;;;;;;13.47;8.03;;;;;;;;;;10226395;29;20832;-86
2023/12/16 02:07:12;;;;;;;13.40;8.40;;;;;;;;;;10224331;29;20540;-85
2023/12/16 02:12:14;;;;;;;14.48;8.18;;;;;;;;;;10223843;28;20467;-85
2023/12/16 02:17:17;;;;;;;12.30;7.75;;;;;;;;;;10222304;28;20420;-85
2023/12/16 02:22:21;;;;;;;13.73;7.55;;;;;;;;;;10227389;29;20546;-86
2023/12/16 02:27:24;;;;;;;10.70;7.47;;;;;;;;;;10225220;28;20469;-85
2023/12/16 02:32:26;;;;;;;15.77;7.57;;;;;;;;;;10223544;28;20831;-85
2023/12/16 02:37:30;;;;;;;13.70;7.67;;;;;;;;;;10224225;28;20501;-85
2023/12/16 02:42:34;;;;;;;12.63;8.20;;;;;;;;;;10223936;28;20432;-85
2023/12/16 02:47:36;;;;;;;11.45;6.95;;;;;;;;;;10231997;28;20434;-85
2023/12/16 02:52:38;;;;;;;11.02;7.35;;;;;;;;;;10225519;29;20424;-85
2023/12/16 02:57:42;;;;;;;14.00;6.80;;;;;;;;;;10223443;28;20539;-85
2023/12/16 03:02:44;;;;;;;9.63;6.68;;;;;;;;;;10223833;29;20418;-86
2023/12/16 03:07:47;;;;;;;11.83;6.90;;;;;;;;;;10227686;29;20492;-85
2023/12/16 03:12:51;;;;;;;11.77;7.20;;;;;;;;;;10221260;28;20484;-84
2023/12/16 03:17:53;;;;;;;9.70;6.88;;;;;;;;;;10219782;29;20808;-85
2023/12/16 03:22:55;;;;;;;9.75;6.38;;;;;;;;;;10229014;28;21250;-85
2023/12/16 03:27:59;;;;;;;9.88;6.25;;;;;;;;;;10223403;29;20523;-85
2023/12/16 03:33:01;;;;;;;10.85;6.45;;;;;;;;;;10221688;29;21055;-86
2023/12/16 03:38:04;;;;;;;10.25;6.78;;;;;;;;;;10219850;28;20419;-86
2023/12/16 03:43:08;;;;;;;9.87;6.27;;;;;;;;;;10216649;29;20425;-85
2023/12/16 03:48:10;;;;;;;9.10;5.78;;;;;;;;;;10218891;29;20916;-85
2023/12/16 03:53:12;;;;;;;9.70;6.10;;;;;;;;;;10220049;28;20430;-86
2023/12/16 03:58:16;;;;;;;11.00;6.03;;;;;;;;;;10232429;28;20437;-84
2023/12/16 04:03:18;;;;;;;10.38;5.78;;;;;;;;;;10220373;29;20830;-86
2023/12/16 04:08:21;;;;;;;10.63;5.67;;;;;;;;;;10220312;28;21160;-85
2023/12/16 04:13:25;;;;;;;8.20;5.53;;;;;;;;;;10219003;29;20467;-84
2023/12/16 04:18:27;;;;;;;7.57;4.63;;;;;;;;;;10216880;28;20506;-85
2023/12/16 04:23:30;;;;;;;7.30;5.10;;;;;;;;;;10220288;29;20514;-84
2023/12/16 04:28:33;;;;;;;8.73;5.18;;;;;;;;;;10213431;29;20476;-85
2023/12/16 04:33:36;;;;;;;10.93;5.33;;;;;;;;;;10215409;29;20453;-85
2023/12/16 04:38:39;;;;;;;7.90;4.95;;;;;;;;;;10222452;28;20886;-85
2023/12/16 04:43:43;;;;;;;7.70;5.13;;;;;;;;;;10216542;28;20486;-85
2023/12/16 04:48:45;;;;;;;8.77;5.00;;;;;;;;;;10217942;28;20487;-85
2023/12/16 04:53:47;;;;;;;7.75;5.22;;;;;;;;;;10219230;29;20416;-85
2023/12/16 04:58:51;;;;;;;9.45;4.88;;;;;;;;;;10221674;29;20456;-85
2023/12/16 05:03:54;;;;;;;8.90;5.07;;;;;;;;;;10228908;28;20428;-85
2023/12/16 05:08:57;;;;;;;8.45;5.68;;;;;;;;;;10225880;29;20614;-84
2023/12/16 05:14:01;;;;;;;9.45;5.40;;;;;;;;;;10219614;29;20497;-85
2023/12/16 05:19:04;;;;;;;9.18;5.38;;;;;;;;;;10217988;29;20513;-86
2023/12/16 05:24:06;;;;;;;10.95;5.88;;;;;;;;;;10223769;28;20426;-86
2023/12/16 05:29:10;;;;;;;9.90;5.53;;;;;;;;;;10217534;28;20520;-85
2023/12/16 05:34:12;;;;;;;8.15;5.13;;;;;;;;;;10224803;28;20420;-84
2023/12/16 05:39:15;;;;;;;11.77;5.63;;;;;;;;;;10225050;29;20455;-85
2023/12/16 05:44:18;;;;;;;9.98;5.28;;;;;;;;;;10221331;28;20419;-85
2023/12/16 05:49:21;;;;;;;9.65;5.53;;;;;;;;;;10226068;29;20536;-85
2023/12/16 05:54:24;;;;;;;9.30;5.83;;;;;;;;;;10232543;29;20471;-85
2023/12/16 05:59:28;;;;;;;12.20;6.63;;;;;;;;;;10227351;29;20956;-85
2023/12/16 06:04:30;;;;;;;9.40;5.30;;;;;;;;;;10224443;29;20501;-85
2023/12/16 06:09:32;;;;;;;8.77;5.50;;;;;;;;;;10232712;28;20497;-84
2023/12/16 06:14:36;;;;;;;8.77;5.05;;;;;;;;;;10236884;28;20420;-84
2023/12/16 06:19:38;;;;;;;8.90;5.20;;;;;;;;;;10228046;28;20422;-86
2023/12/16 06:24:41;;;;;;;11.33;5.60;;;;;;;;;;10222854;28;20487;-85
2023/12/16 06:29:45;;;;;;;8.05;4.90;;;;;;;;;;10223091;29;20461;-85
2023/12/16 06:34:47;;;;;;;10.30;4.70;;;;;;;;;;10219044;29;20461;-86
2023/12/16 06:39:49;;;;;;;10.32;5.32;;;;;;;;;;10225450;29;20430;-85
2023/12/16 06:44:53;;;;;;;10.38;5.07;;;;;;;;;;10216969;29;20457;-84
2023/12/16 06:49:55;;;;;;;9.43;5.43;;;;;;;;;;10219499;29;20813;-85
2023/12/16 06:54:58;;;;;;;11.25;5.40;;;;;;;;;;10214030;29;20462;-85
2023/12/16 07:00:01;;;;;;;8.13;5.43;;;;;;;;;;10214764;29;20520;-85
2023/12/16 07:05:04;;;;;;;8.50;5.30;;;;;;;;;;10219041;29;20442;-86
2023/12/16 07:10:08;;;;;;;10.23;5.78;;;;;;;;;;10218902;29;20577;-85
2023/12/16 07:15:12;;;;;;;10.38;6.10;;;;;;;;;;10218336;29;20482;-85
2023/12/16 07:20:14;;;;;;;10.73;5.90;;;;;;;;;;10218335;29;20924;-84
2023/12/16 07:25:17;;;;;;;9.68;6.32;;;;;;;;;;10240852;28;20901;-84
2023/12/16 07:30:21;;;;;;;10.10;6.65;;;;;;;;;;10220785;28;20427;-84
2023/12/16 07:35:23;;;;;;;12.43;6.93;;;;;;;;;;10213394;29;20441;-84
2023/12/16 07:40:26;;;;;;;12.45;7.55;;;;;;;;;;10223703;29;20556;-83
2023/12/16 07:45:30;;;;;;;14.10;7.88;;;;;;;;;;10220210;29;20813;-85
2023/12/16 07:50:32;;;;;;;14.98;7.63;;;;;;;;;;10222373;28;20473;-85
2023/12/16 07:55:35;;;;;;;13.30;8.00;;;;;;;;;;10225030;28;20489;-85
2023/12/16 08:00:39;;;;;;;13.02;8.18;;;;;;;;;;10223194;28;20408;-84
2023/12/16 08:05:41;;;;;;;14.37;8.80;;;;;;;;;;10219123;29;20414;-85
2023/12/16 08:10:44;;;;;;;13.88;8.50;;;;;;;;;;10232157;29;20468;-86
2023/12/16 08:15:48;;;;;;;13.60;7.43;;;;;;;;;;10217480;29;20521;-84
2023/12/16 08:20:50;;;;;;;13.18;7.68;;;;;;;;;;10219618;29;20433;-85
2023/12/16 08:25:52;;;;;;;13.47;7.87;;;;;;;;;;10218458;29;20416;-84
2023/12/16 08:30:56;;;;;;;12.75;8.05;;;;;;;;;;10231241;28;20432;-86
2023/12/16 08:35:59;;;;;;;12.88;8.25;;;;;;;;;;10239265;28;20453;-85
2023/12/16 08:41:04;;;;;;;12.53;6.90;;;;;;;;;;10223467;29;20420;-85
2023/12/16 08:46:08;;;;;;;11.93;7.45;;;;;;;;;;10209488;29;20468;-85
2023/12/16 08:51:10;;;;;;;11.65;7.28;;;;;;;;;;10213811;29;20494;-84
2023/12/16 08:56:13;;;;;;;11.63;7.47;;;;;;;;;;10220121;29;20487;-85
2023/12/16 09:01:16;;;;;;;14.73;8.15;;;;;;;;;;10217368;29;20516;-85
2023/12/16 09:06:20;;;;;;;12.07;7.97;;;;;;;;;;10222994;29;20814;-86
2023/12/16 09:11:22;;;;;;;13.48;7.85;;;;;;;;;;10231980;29;20910;-85
2023/12/16 09:16:26;;;;;;;12.80;7.83;;;;;;;;;;10215403;28;20533;-84
2023/12/16 09:21:28;;;;;;;12.60;6.68;;;;;;;;;;10222347;28;20546;-85
2023/12/16 09:26:31;;;;;;;9.37;5.70;;;;;;;;;;10222542;29;20454;-85
2023/12/16 09:31:34;;;;;;;13.88;6.53;;;;;;;;;;10226779;29;20808;-86
2023/12/16 09:36:37;;;;;;;14.10;7.40;;;;;;;;;;10231485;29;20942;-85
2023/12/16 09:41:44;;;;;;;11.45;7.53;;;;;;;;;;10232212;28;20517;-86
2023/12/16 09:46:48;;;;;;;13.18;7.45;;;;;;;;;;10231480;28;20524;-85
2023/12/16 09:51:51;;;;;;;8.37;6.23;;;;;;;;;;10219500;29;20558;-86
2023/12/16 09:56:55;;;;;;;8.52;5.93;;;;;;;;;;10217686;29;20464;-85
2023/12/16 10:02:00;;;;;;;10.23;5.80;;;;;;;;;;10228512;29;21020;-85
2023/12/16 10:07:02;;;;;;;8.00;5.30;;;;;;;;;;10224459;28;20565;-85
2023/12/16 10:12:08;;;;;;;6.82;4.88;;;;;;;;;;10216872;28;20893;-84
2023/12/16 10:17:12;;;;;;;6.97;4.80;;;;;;;;;;10220228;29;20809;-85
2023/12/16 10:22:14;;;;;;;6.07;4.23;;;;;;;;;;10220238;29;20418;-84
2023/12/16 10:27:18;;;;;;;5.47;4.20;;;;;;;;;;10217714;28;20461;-85
2023/12/16 10:32:22;;;;;;;5.68;4.05;;;;;;;;;;10215685;29;20839;-85
2023/12/16 10:37:24;;;;;;;6.28;4.00;;;;;;;;;;10219188;29;20850;-85
2023/12/16 10:42:26;;;;;;;5.45;3.80;;;;;;;;;;10219434;28;20417;-85
2023/12/16 10:47:31;;;;;;;9.07;3.58;;;;;;;;;;10219728;29;20452;-85
2023/12/16 10:52:39;;;;;;;5.27;3.40;;;;;;;;;;10235930;28;20420;-85
2023/12/16 10:57:47;;;;;;;4.82;3.03;;;;;;;;;;10230343;28;20833;-84
2023/12/16 11:02:58;;;;;;;5.07;3.40;;;;;;;;;;10224665;28;20455;-86
2023/12/16 11:08:02;;;;;;;4.60;3.65;;;;;;;;;;10222758;29;20457;-85
2023/12/16 11:13:05;;;;;;;4.65;3.25;;;;;;;;;;10213486;29;20509;-85
2023/12/16 11:18:14;;;;;;;6.03;3.67;;;;;;;;;;10215760;29;20417;-86
2023/12/16 11:23:17;;;;;;;5.57;3.30;;;;;;;;;;10220951;29;20481;-85
2023/12/16 11:28:19;;;;;;;4.72;3.10;;;;;;;;;;10222415;28;20464;-85
2023/12/16 11:33:23;;;;;;;6.30;3.50;;;;;;;;;;10217800;28;20477;-85
2023/12/16 11:38:47;;;;;;;4.50;3.00;;;;;;;;;;10228768;29;20428;-84
2023/12/16 11:43:51;;;;;;;4.82;2.90;;;;;;;;;;10213252;28;20453;-85
2023/12/16 11:48:55;;;;;;;3.97;2.80;;;;;;;;;;10223791;28;20463;-86
2023/12/16 11:53:58;;;;;;;8.13;3.15;;;;;;;;;;10224640;28;20922;-86
2023/12/16 11:59:00;;;;;;;4.23;2.63;;;;;;;;;;10223899;28;20455;-85
2023/12/16 12:04:05;;;;;;;3.92;2.67;;;;;;;;;;10245922;28;20404;-85
2023/12/16 12:09:08;;;;;;;3.40;2.67;;;;;;;;;;10221615;29;20458;-85
2023/12/16 12:14:10;;;;;;;2.90;2.42;;;;;;;;;;10213373;28;20440;-86
2023/12/16 12:19:14;;;;;;;5.53;3.50;;;;;;;;;;10214539;28;21019;-86
2023/12/16 12:24:16;;;;;;;6.13;3.20;;;;;;;;;;10217804;28;20515;-84
2023/12/16 12:29:19;;;;;;;3.80;3.13;;;;;;;;;;10211388;28;20864;-85
2023/12/16 12:34:24;;;;;;;4.60;3.10;;;;;;;;;;10218487;29;20448;-86
2023/12/16 12:39:27;;;;;;;5.60;3.50;;;;;;;;;;10209609;28;20453;-86
2023/12/16 12:44:30;;;;;;;6.95;4.55;;;;;;;;;;10222098;28;20853;-82
2023/12/16 12:49:34;;;;;;;4.90;3.28;;;;;;;;;;10219098;28;20473;-85
2023/12/16 12:54:44;;;;;;;4.13;2.92;;;;;;;;;;10212479;29;20534;-84
2023/12/16 12:59:46;;;;;;;4.57;3.10;;;;;;;;;;10212502;29;20522;-85
2023/12/16 13:04:50;;;;;;;4.05;2.95;;;;;;;;;;10225254;29;20478;-84
2023/12/16 13:09:53;;;;;;;6.53;3.38;;;;;;;;;;10232683;29;20465;-84
2023/12/16 13:14:55;;;;;;;4.67;3.10;;;;;;;;;;10233067;28;20485;-83
2023/12/16 13:19:59;;;;;;;5.75;3.45;;;;;;;;;;10216469;29;20412;-85
2023/12/16 13:25:01;;;;;;;4.70;3.17;;;;;;;;;;10216934;29;20442;-84
2023/12/16 13:30:04;;;;;;;7.20;3.40;;;;;;;;;;10215188;28;20506;-85
2023/12/16 13:35:09;;;;;;;4.95;2.95;;;;;;;;;;10214581;29;20469;-85
2023/12/16 13:40:12;;;;;;;4.00;2.93;;;;;;;;;;10217116;29;20414;-84
2023/12/16 13:45:15;;;;;;;4.90;3.37;;;;;;;;;;10214073;29;20536;-86
2023/12/16 13:50:20;;;;;;;5.15;3.88;;;;;;;;;;10217184;29;20532;-86
2023/12/16 13:55:23;;;;;;;4.38;3.13;;;;;;;;;;10213815;29;20418;-85
2023/12/16 14:00:25;;;;;;;4.80;3.60;;;;;;;;;;10220353;28;20779;-85
2023/12/16 14:05:29;;;;;;;4.63;3.20;;;;;;;;;;10211658;29;20994;-85
2023/12/16 14:10:31;;;;;;;4.75;2.90;;;;;;;;;;10221643;29;20508;-87
2023/12/16 14:15:33;;;;;;;4.47;3.03;;;;;;;;;;10211882;29;20701;-84
2023/12/16 14:20:37;;;;;;;5.33;3.27;;;;;;;;;;10212938;29;20465;-83
2023/12/16 14:25:40;;;;;;;4.40;3.10;;;;;;;;;;10236051;28;20433;-84
2023/12/16 14:30:42;;;;;;;3.63;3.10;;;;;;;;;;10217700;28;20465;-84
2023/12/16 14:35:46;;;;;;;4.55;2.83;;;;;;;;;;10223934;29;20493;-86
2023/12/16 14:40:48;;;;;;;4.15;3.17;;;;;;;;;;10224863;29;21003;-86
2023/12/16 14:45:51;;;;;;;6.10;3.80;;;;;;;;;;10217137;29;20905;-85
2023/12/16 14:50:55;;;;;;;7.63;4.63;;;;;;;;;;10210001;29;20943;-84
2023/12/16 14:55:58;;;;;;;5.73;4.00;;;;;;;;;;10216574;29;21007;-86
2023/12/16 15:01:00;;;;;;;7.10;4.20;;;;;;;;;;10219413;29;20907;-85
2023/12/16 15:06:04;;;;;;;6.72;4.07;;;;;;;;;;10228882;28;20444;-85
2023/12/16 15:11:07;;;;;;;4.25;3.60;;;;;;;;;;10240812;28;20463;-85
2023/12/16 15:16:10;;;;;;;8.27;4.57;;;;;;;;;;10228077;29;20508;-86
2023/12/16 15:21:14;;;;;;;9.30;5.57;;;;;;;;;;10217897;29;20404;-86
2023/12/16 15:26:17;;;;;;;10.57;6.40;;;;;;;;;;10227952;29;20872;-84
2023/12/16 15:31:19;;;;;;;10.77;6.67;;;;;;;;;;10213999;29;20473;-85
2023/12/16 15:36:23;;;;;;;13.20;7.03;;;;;;;;;;10241715;28;20417;-85
2023/12/16 15:41:26;;;;;;;9.30;6.60;;;;;;;;;;10221026;28;20457;-85
2023/12/16 15:46:28;;;;;;;10.02;5.78;;;;;;;;;;10220009;28;20449;-85
2023/12/16 15:51:32;;;;;;;8.75;5.53;;;;;;;;;;10222907;28;20469;-84
2023/12/16 15:56:34;;;;;;;10.10;5.75;;;;;;;;;;10220211;29;20444;-85
2023/12/16 16:01:39;;;;;;;8.48;5.25;;;;;;;;;;10215480;28;20905;-85
2023/12/16 16:06:44;;;;;;;13.30;6.95;;;;;;;;;;10220855;29;20457;-85
2023/12/16 16:11:46;;;;;;;14.77;7.23;;;;;;;;;;10222162;28;20436;-84
2023/12/16 16:16:49;;;;;;;12.98;6.93;;;;;;;;;;10217085;28;20443;-84
2023/12/16 16:21:53;;;;;;;16.45;8.02;;;;;;;;;;10218738;29;20412;-84
2023/12/16 16:26:57;;;;;;;14.57;8.63;;;;;;;;;;10221638;29;20452;-84
2023/12/16 16:31:59;;;;;;;14.93;8.63;;;;;;;;;;10216628;28;20460;-84
2023/12/16 16:37:03;;;;;;;16.73;10.13;;;;;;;;;;10209224;29;20477;-84
2023/12/16 16:42:06;;;;;;;20.33;10.15;;;;;;;;;;10218937;29;20460;-84
2023/12/16 16:47:08;;;;;;;17.00;10.48;;;;;;;;;;10238142;29;20525;-84
2023/12/16 16:52:12;;;;;;;18.17;9.20;;;;;;;;;;10218466;28;20868;-85
2023/12/16 16:57:16;;;;;;;14.00;8.43;;;;;;;;;;10224494;29;21146;-84
2023/12/16 17:02:19;;;;;;;16.10;8.65;;;;;;;;;;10215617;29;20464;-85
2023/12/16 17:07:23;;;;;;;24.50;12.75;;;;;;;;;;10214894;29;20454;-83
2023/12/16 17:12:25;;;;;;;32.78;18.63;;;;;;;;;;10215060;28;20765;-85
2023/12/16 17:17:28;;;;;;;74.10;38.57;;;;;;;;;;10210579;29;20513;-86
2023/12/16 17:22:32;;;;;;;41.28;23.95;;;;;;;;;;10211412;28;20461;-83
2023/12/16 17:27:34;;;;;;;28.90;17.80;;;;;;;;;;10211954;28;20485;-84
2023/12/16 17:32:36;;;;;;;28.60;17.10;;;;;;;;;;10233334;29;20796;-83
2023/12/16 17:37:40;;;;;;;25.92;16.50;;;;;;;;;;10217801;28;20470;-86
2023/12/16 17:42:42;;;;;;;27.63;15.43;;;;;;;;;;10221570;28;20520;-86
2023/12/16 17:47:45;;;;;;;26.67;15.52;;;;;;;;;;10212440;29;20418;-86
2023/12/16 17:52:49;;;;;;;27.13;15.70;;;;;;;;;;10220362;29;20823;-85
2023/12/16 17:57:51;;;;;;;28.53;16.13;;;;;;;;;;10238977;28;20451;-85
2023/12/16 18:02:53;;;;;;;27.92;16.05;;;;;;;;;;10222543;29;20464;-84
2023/12/16 18:07:57;;;;;;;26.05;15.68;;;;;;;;;;10226842;28;20514;-84
2023/12/16 18:12:59;;;;;;;26.52;17.00;;;;;;;;;;10224453;29;20471;-84
2023/12/16 18:18:02;;;;;;;30.00;17.52;;;;;;;;;;10224795;29;20453;-85
2023/12/16 18:23:05;;;;;;;28.50;17.45;;;;;;;;;;10219470;28;20416;-84
2023/12/16 18:28:08;;;;;;;29.65;17.33;;;;;;;;;;10224756;29;20435;-85
2023/12/16 18:33:10;;;;;;;25.63;17.03;;;;;;;;;;10220386;29;20556;-85
2023/12/16 18:38:14;;;;;;;29.60;17.05;;;;;;;;;;10219654;29;20556;-85
2023/12/16 18:43:16;;;;;;;28.58;17.58;;;;;;;;;;10222211;29;20469;-86
2023/12/16 18:48:19;;;;;;;29.48;17.63;;;;;;;;;;10235492;28;20472;-84
2023/12/16 18:53:22;;;;;;;29.83;17.93;;;;;;;;;;10224816;23;20471;-85
2023/12/16 18:58:25;;;;;;;31.80;18.95;;;;;;;;;;10153923;29;20427;-84
2023/12/16 19:03:27;;;;;;;27.07;17.20;;;;;;;;;;10141973;29;22071;-83
2023/12/16 19:08:31;;;;;;;27.50;16.70;;;;;;;;;;10158602;29;20455;-83
2023/12/16 19:13:33;;;;;;;26.33;16.93;;;;;;;;;;10148899;29;20469;-83
2023/12/16 19:18:35;;;;;;;26.38;16.02;;;;;;;;;;10160606;29;20420;-84
2023/12/16 19:23:39;;;;;;;26.50;17.13;;;;;;;;;;10154823;29;20505;-84
2023/12/16 19:28:41;;;;;;;25.88;16.83;;;;;;;;;;10147629;29;20489;-83
2023/12/16 19:33:44;;;;;;;25.87;16.37;;;;;;;;;;10144120;29;20894;-83
2023/12/16 19:38:47;;;;;;;26.65;16.80;;;;;;;;;;10143961;29;20973;-83
2023/12/16 19:43:50;;;;;;;28.75;17.58;;;;;;;;;;10149963;29;20557;-83
2023/12/16 19:48:52;;;;;;;29.30;17.20;;;;;;;;;;10134378;29;20510;-83
2023/12/16 19:53:56;;;;;;;28.67;17.67;;;;;;;;;;10127343;29;20514;-83
2023/12/16 19:58:58;;;;;;;27.00;17.00;;;;;;;;;;10123890;29;20595;-84
2023/12/16 20:04:01;;;;;;;27.27;17.85;;;;;;;;;;10122512;29;20456;-83
2023/12/16 20:09:07;;;;;;;32.30;18.73;;;;;;;;;;10129542;29;20836;-84
2023/12/16 20:14:10;;;;;;;27.17;17.52;;;;;;;;;;10127581;29;20995;-84
2023/12/16 20:19:12;;;;;;;31.37;19.03;;;;;;;;;;10131400;29;20464;-83
2023/12/16 20:24:16;;;;;;;33.25;19.52;;;;;;;;;;10131073;29;21774;-84
2023/12/16 20:29:19;;;;;;;52.53;28.67;;;;;;;;;;10129288;29;20480;-84
2023/12/16 20:34:21;;;;;;;39.95;22.73;;;;;;;;;;10133404;29;20463;-84
2023/12/16 20:44:45;;;;;;;33.78;20.23;;;;;;;;;;10137058;29;21007;-84
2023/12/16 20:49:47;;;;;;;36.33;21.27;;;;;;;;;;10140630;29;20476;-84
2023/12/16 20:54:51;;;;;;;36.27;21.37;;;;;;;;;;10134944;29;20482;-82
2023/12/16 20:59:53;;;;;;;37.50;21.27;;;;;;;;;;10138438;29;20455;-83
2023/12/16 21:04:55;;;;;;;34.60;20.50;;;;;;;;;;10148934;29;21017;-84
2023/12/16 21:09:59;;;;;;;32.40;19.27;;;;;;;;;;10155325;29;20537;-82
2023/12/16 21:15:01;;;;;;;33.70;19.90;;;;;;;;;;10155399;29;20479;-82
2023/12/16 21:20:07;;;;;;;31.10;20.02;;;;;;;;;;10157872;29;21439;-81
2023/12/16 21:25:11;;;;;;;35.85;21.50;;;;;;;;;;10151061;29;20486;-84
2023/12/16 21:30:14;;;;;;;34.20;20.52;;;;;;;;;;10153636;29;20496;-83
2023/12/16 21:35:16;;;;;;;34.33;20.90;;;;;;;;;;10156939;29;20452;-82
2023/12/16 21:40:20;;;;;;;31.37;20.27;;;;;;;;;;10158967;29;20515;-81
2023/12/16 21:45:23;;;;;;;33.90;19.37;;;;;;;;;;10155013;29;20478;-83
2023/12/16 21:50:25;;;;;;;26.48;17.08;;;;;;;;;;10157030;29;20480;-83
2023/12/16 21:55:29;;;;;;;27.92;16.35;;;;;;;;;;10156236;29;20502;-83
2023/12/16 22:00:31;;;;;;;23.30;14.55;;;;;;;;;;10151814;29;20526;-83
2023/12/16 22:05:34;;;;;;;23.63;14.97;;;;;;;;;;10145920;29;20517;-83
2023/12/16 22:10:38;;;;;;;23.25;14.90;;;;;;;;;;10159489;29;20464;-83
2023/12/16 22:15:40;;;;;;;24.50;15.25;;;;;;;;;;10158984;29;20491;-82
2023/12/16 22:20:42;;;;;;;26.60;17.83;;;;;;;;;;10147135;29;20453;-83
2023/12/16 22:25:46;;;;;;;26.20;16.83;;;;;;;;;;10150052;29;20979;-82
2023/12/16 22:30:48;;;;;;;32.67;19.73;;;;;;;;;;10150635;29;20557;-83
2023/12/16 22:35:51;;;;;;;27.17;17.02;;;;;;;;;;10152474;29;20526;-83
2023/12/16 22:40:54;;;;;;;26.92;17.50;;;;;;;;;;10149715;29;20490;-83
2023/12/16 22:45:57;;;;;;;26.88;17.38;;;;;;;;;;10154043;29;20532;-82
2023/12/16 22:50:59;;;;;;;27.70;18.17;;;;;;;;;;10156131;29;20466;-83
2023/12/16 22:56:03;;;;;;;30.27;17.80;;;;;;;;;;10154216;29;20449;-84
2023/12/16 23:01:07;;;;;;;28.42;17.13;;;;;;;;;;10151219;29;20986;-84
2023/12/16 23:06:10;;;;;;;27.95;15.77;;;;;;;;;;10154947;29;20895;-84
2023/12/16 23:11:14;;;;;;;29.57;17.57;;;;;;;;;;10157521;29;20982;-84
2023/12/16 23:16:16;;;;;;;31.10;18.23;;;;;;;;;;10153536;29;20508;-84
2023/12/16 23:21:19;;;;;;;26.23;15.90;;;;;;;;;;10160664;29;20422;-85
2023/12/16 23:26:23;;;;;;;28.97;17.03;;;;;;;;;;10154469;29;20930;-83
2023/12/16 23:31:25;;;;;;;24.30;15.63;;;;;;;;;;10155384;29;20510;-84
2023/12/16 23:36:27;;;;;;;26.92;16.10;;;;;;;;;;10151193;29;20459;-84
2023/12/16 23:41:31;;;;;;;26.35;15.10;;;;;;;;;;10150465;29;20463;-84
2023/12/16 23:46:33;;;;;;;26.02;16.40;;;;;;;;;;10155339;29;20752;-84
2023/12/16 23:51:36;;;;;;;26.13;17.00;;;;;;;;;;10151998;29;20469;-84
2023/12/16 23:56:40;;;;;;;23.65;16.13;;;;;;;;;;10158174;29;20520;-84
